Aérodrome :
LOGIN :

S'inscrire | Disclaimer

   EN    FR    IT 

 










Légende :    VFR   VFR Marginal   IFR   IFR Intensif   IFR Très Intensif
Visi : 
Plafond : 
>= 8 km
>= 3000ft
5 à 8 km
1000 à 3000 ft
1500m à 5 km
500 à 1000 ft
800 à 1500m
200 à 500 ft
< 800m
< 200 ft
Symboles :   Orages  Brouillard  Fortes neiges  Fortes précipitations  Vent > 20 kt
SIGMETs :   Divers  Orages  Givrage  Turbulence  Onde Orograph.  Cendres Volcan.






- Altitude de l'aérodrome : 1302 ft
- Code IATA : GNB


LFLS - Grenoble / St. Geoirs

DERNIER METAR :
  • 110330Z AUTO 21006KT 180V240 6000 RA FEW010/// BKN017/// BKN031/// ///CB 09/09 Q1010 TEMPO 2000 RA BKN007 SCT055TCU

METARs EXPIRÉS :
  • 110300Z AUTO 20004KT 9000 RA FEW012/// SCT027/// BKN049/// ///CB 09/09 Q1010 TEMPO 2000 RA BKN007 SCT055TCU
  • 110230Z AUTO 20003KT 5000 RA BR FEW004/// SCT010/// BKN017/// ///CB 09/09 Q1009 TEMPO 2000 RA BKN007 SCT055TCU
  • 110200Z AUTO 26003KT 230V290 9999 -RA SCT010/// SCT020/// BKN046/// ///CB 10/09 Q1010
  • 110130Z AUTO 16003KT 140V200 9000 -RA FEW008/// SCT012/// BKN048/// ///CB 10/09 Q1010
  • 110100Z AUTO VRB03KT 7000 RA FEW012/// SCT045/// BKN058/// ///CB 10/09 Q1010

TAF TAF LFLS
Valide du 11 à 03h jusqu'au 12 à 03h UTC


110200Z 1103/1203 09005KT 7000 SCT010 BKN020
TEMPO 1103/1107 2000 RA BKN007 SCT055TCU
BECMG 1108/1110 25010KT
BECMG 1112/1114 34010KT
TEMPO 1112/1120 4000 SHRA BKN030TCU
PROB30
TEMPO 1112/1117 34015G25KT -TSRA SCT027CB
BECMG 1120/1122 VRB02KT
ATIS : +33 4 76 65 55 89



MET'MAP, la Météo Aéronautique d'un coup d'oeil ! - Copyright ORBIFLY Décembre 2007 - Disclaimer

ORBIFLY MET'MAP TEAM :

Programmation & Développement : Alexandra Zaïnal
Sur une idée originale de : Baudouin d'Aumeries
Assistance à la programmation : Marc-Olivier Méhu
Soutien technique & logistique : Manuel Goepfert

Contact : metmap@orbifly.com




SOURCES & CREDITS :

   NOAA